Terminal Aerodrome Forecast
Issued by NWS Glasgow, MT

Home | Current Version | Previous Version | Text Only | Print | Product List | Glossary On
Versions: 1 2 3 4 5 6 7 8 9 10 11 12 13 14 15 16
000
FTUS45 KGGW 161746
TAFGGW
TAF
KGGW 161746Z 1618/1718 30007KT P6SM FEW110
     FM170400 VRB03KT P6SM FEW140
     FM171500 16006KT P6SM FEW060=

USA.gov is the U.S. government's official web portal to all federal, state and local government web resources and services.